Enter the Airport ICAO Code

Search by Airport or City

Current Weather

GCLA | La Palma Airport

La Palma, Canary Islands, Spain

Last Update 28 Minutes Ago

Partly Cloudy Sky

Temperature of 23 ºC

Moderate Winds from NorthEast

Temperature

23 ºC

Dew Point Temperature

13 ºC

Relative Humidity

53.51 %

Wind Direction

NorthEast (030º, Ranging from 350º to 070º)

Wind Velocity

20 km/h (11 kt)

Gusts

None

Visibility

Greater than 10 Kilometers

Sea Level Pressure

1023 hPa (Hectopascals)

Layers of Clouds

5% to 30% of Sky Covered from 975 mts (3200 ft) Above Ground Level.

30% to 60% of Sky Covered from 1463 mts (4800 ft) Above Ground Level.

METAR GCLA 191200Z 03011KT 350V070 9999 FEW032 SCT048 23/13 Q1023

Weather Forecast

GCLA | La Palma Airport

La Palma, Canary Islands, Spain

Forecast valid for the next 21 Hours

From now on it is expected:

Mostly Cloudy Sky

Moderate Winds from NorthEast

In 8 to 10 hours it is expected the begining of:

Light to Moderate Winds from NorthWest

Maximum Temperature

22 ºC in 2 Hours

Minimum Temperature

18 ºC in 18 Hours

TAF GCLA 190800Z 1909/2009 03012KT 9999 BKN030 TX22/1914Z TN18/2006Z BECMG 1920/1922 33007KT